createdAt,value
2019-03-30T00:00:20.246Z,96268.47
2019-03-30T00:02:48.603Z,96266.27
2019-03-30T00:05:16.959Z,96263.42
2019-03-30T00:07:45.330Z,96260.74
2019-03-30T00:10:13.680Z,96260.46
2019-03-30T00:12:42.996Z,96256.31
2019-03-30T00:15:11.424Z,96261.63
2019-03-30T00:17:39.716Z,96254.14
2019-03-30T00:20:08.095Z,96247.99
2019-03-30T00:22:36.451Z,96244.94
2019-03-30T00:25:05.688Z,96250.86
2019-03-30T00:27:34.036Z,96252.95
2019-03-30T00:30:02.380Z,96251.69
2019-03-30T00:32:30.728Z,96251.31
2019-03-30T00:34:59.073Z,96248.63
2019-03-30T00:37:27.585Z,96246.95
2019-03-30T00:39:55.945Z,96249.92
2019-03-30T00:42:24.310Z,96246.98
2019-03-30T00:44:52.657Z,96243.93
2019-03-30T00:47:21.006Z,96238.45
2019-03-30T00:49:50.359Z,96238.91
2019-03-30T00:52:18.634Z,96241.89
2019-03-30T00:57:23.272Z,96241.63
2019-03-30T00:59:51.614Z,96239.28
2019-03-30T01:02:19.956Z,96238.77
2019-03-30T01:04:48.340Z,96233.17
2019-03-30T01:07:16.698Z,96238.59
2019-03-30T01:09:45.049Z,96234.09
2019-03-30T01:12:13.410Z,96233.72
2019-03-30T01:14:41.772Z,96242.27
2019-03-30T01:17:11.396Z,96237.77
2019-03-30T01:19:39.757Z,96235.01
2019-03-30T01:22:08.103Z,96232.58
2019-03-30T01:24:37.367Z,96230.72
2019-03-30T01:27:05.720Z,96228.20
2019-03-30T01:29:34.084Z,96230.64
2019-03-30T01:32:02.435Z,96230.08
2019-03-30T01:34:30.792Z,96225.02
2019-03-30T01:36:59.154Z,96229.26
2019-03-30T01:39:27.511Z,96222.90
2019-03-30T01:41:55.939Z,96225.83
2019-03-30T01:44:24.271Z,96220.91
2019-03-30T01:46:52.667Z,96215.28
2019-03-30T01:49:22.036Z,96211.86
2019-03-30T01:51:50.389Z,96209.64
2019-03-30T01:54:18.723Z,96212.00
2019-03-30T01:56:47.171Z,96210.80
2019-03-30T02:01:49.898Z,96211.80
2019-03-30T02:04:18.365Z,96211.13
2019-03-30T02:06:46.713Z,96211.83
2019-03-30T02:09:15.062Z,96216.48
2019-03-30T02:11:43.422Z,96225.05
2019-03-30T02:14:11.785Z,96223.95
2019-03-30T02:16:40.160Z,96223.41
2019-03-30T02:19:08.507Z,96222.08
2019-03-30T02:21:36.865Z,96224.03
2019-03-30T02:24:05.227Z,96232.77
2019-03-30T02:26:34.540Z,96224.48
2019-03-30T02:29:02.962Z,96235.37
2019-03-30T02:31:31.314Z,96236.09
2019-03-30T02:33:59.685Z,96228.77
2019-03-30T02:36:28.041Z,96224.52
2019-03-30T02:38:56.398Z,96227.02
2019-03-30T02:41:24.776Z,96233.44
2019-03-30T02:43:53.132Z,96219.04
2019-03-30T02:46:21.474Z,96220.03
2019-03-30T02:48:49.822Z,96218.02
2019-03-30T02:53:52.238Z,96215.41
2019-03-30T02:56:20.616Z,96216.27
2019-03-30T02:58:48.967Z,96211.69
2019-03-30T03:01:17.336Z,96207.33
2019-03-30T03:03:45.716Z,96207.34
2019-03-30T03:06:14.083Z,96203.53
2019-03-30T03:08:42.411Z,96202.66
2019-03-30T03:11:10.764Z,96205.65
2019-03-30T03:13:39.225Z,96202.56
2019-03-30T03:16:07.570Z,96201.70
2019-03-30T03:18:35.959Z,96200.46
2019-03-30T03:21:08.059Z,96198.90
2019-03-30T03:23:32.717Z,96205.77
2019-03-30T03:26:01.055Z,96201.45
2019-03-30T03:28:29.432Z,96205.34
2019-03-30T03:30:57.772Z,96199.36
2019-03-30T03:33:26.126Z,96199.34
2019-03-30T03:35:54.479Z,96201.02
2019-03-30T03:38:22.847Z,96196.42
2019-03-30T03:40:51.182Z,96200.23
2019-03-30T03:43:20.497Z,96196.16
2019-03-30T03:45:48.894Z,96199.11
2019-03-30T03:48:17.240Z,96195.77
2019-03-30T03:50:46.599Z,96198.60
2019-03-30T03:53:14.976Z,96204.41
2019-03-30T03:55:43.332Z,96201.19
2019-03-30T03:58:11.699Z,96200.30
2019-03-30T04:03:14.285Z,96198.88
2019-03-30T04:05:42.641Z,96201.87
2019-03-30T04:08:10.999Z,96199.38
2019-03-30T04:12:38.429Z,96200.86
2019-03-30T04:15:06.780Z,96200.88
2019-03-30T04:17:35.123Z,96203.64
2019-03-30T04:20:03.501Z,96203.72
2019-03-30T04:22:31.862Z,96211.06
2019-03-30T04:27:36.504Z,96213.42
2019-03-30T04:30:05.552Z,96217.64
2019-03-30T04:32:33.901Z,96220.21
2019-03-30T04:35:02.272Z,96218.22
2019-03-30T04:40:05.670Z,96219.45
2019-03-30T04:42:34.036Z,96221.86
2019-03-30T04:45:02.368Z,96228.25
2019-03-30T04:47:31.689Z,96226.17
2019-03-30T04:50:00.426Z,96224.83
2019-03-30T04:52:29.460Z,96222.20
2019-03-30T04:54:57.808Z,96229.85
2019-03-30T04:57:26.247Z,96226.47
2019-03-30T04:59:54.560Z,96229.08
2019-03-30T05:02:22.909Z,96230.66
2019-03-30T05:04:51.253Z,96232.80
2019-03-30T05:07:19.608Z,96230.20
2019-03-30T05:09:47.972Z,96233.66
2019-03-30T05:12:16.357Z,96233.09
2019-03-30T05:14:44.680Z,96237.95
2019-03-30T05:17:13.035Z,96237.19
2019-03-30T05:19:41.386Z,96234.43
2019-03-30T05:22:12.826Z,96233.20
2019-03-30T05:27:12.398Z,96236.41
2019-03-30T05:29:40.854Z,96234.73
2019-03-30T05:32:09.204Z,96235.87
2019-03-30T05:34:37.552Z,96238.28
2019-03-30T05:37:05.912Z,96240.33
2019-03-30T05:39:34.602Z,96236.04
2019-03-30T05:42:03.037Z,96237.28
2019-03-30T05:44:31.375Z,96234.91
2019-03-30T05:46:59.730Z,96233.33
2019-03-30T05:52:05.345Z,96236.80
2019-03-30T05:54:33.768Z,96241.28
2019-03-30T05:57:02.108Z,96245.63
2019-03-30T05:59:30.480Z,96244.47
2019-03-30T06:01:58.852Z,96237.98
2019-03-30T06:04:27.209Z,96244.81
2019-03-30T06:06:55.556Z,96244.42
2019-03-30T06:09:23.916Z,96248.06
2019-03-30T06:11:52.254Z,96247.62
2019-03-30T06:16:54.841Z,96247.58
2019-03-30T06:21:58.505Z,96239.81
2019-03-30T06:24:26.901Z,96239.86
2019-03-30T06:26:55.236Z,96240.39
2019-03-30T06:29:23.603Z,96240.12
2019-03-30T06:31:51.948Z,96237.97
2019-03-30T06:34:21.233Z,96240.50
2019-03-30T06:36:49.564Z,96239.39
2019-03-30T06:39:17.917Z,96238.09
2019-03-30T06:41:46.279Z,96236.97
2019-03-30T06:44:15.660Z,96230.05
2019-03-30T06:46:44.080Z,96230.98
2019-03-30T06:49:12.438Z,96230.48
2019-03-30T06:51:40.784Z,96228.08
2019-03-30T06:54:09.224Z,96228.70
2019-03-30T06:56:38.488Z,96225.89
2019-03-30T06:59:06.910Z,96224.39
2019-03-30T07:01:35.231Z,96229.50
2019-03-30T07:04:03.588Z,96232.88
2019-03-30T07:06:32.028Z,96225.42
2019-03-30T07:09:00.520Z,96225.86
2019-03-30T07:11:28.862Z,96229.93
2019-03-30T07:13:57.233Z,96232.77
2019-03-30T07:16:25.611Z,96237.63
2019-03-30T07:18:53.973Z,96238.33
2019-03-30T07:21:22.304Z,96235.36
2019-03-30T07:23:51.590Z,96235.34
2019-03-30T07:28:54.181Z,96237.23
2019-03-30T07:31:22.518Z,96238.53
2019-03-30T07:33:50.916Z,96236.45
2019-03-30T07:36:20.247Z,96234.33
2019-03-30T07:38:48.588Z,96234.56
2019-03-30T07:41:16.932Z,96236.44
2019-03-30T07:43:45.272Z,96231.56
2019-03-30T07:46:13.679Z,96230.97
2019-03-30T07:48:42.069Z,96232.75
2019-03-30T07:51:10.445Z,96235.66
2019-03-30T07:53:44.613Z,96227.93
2019-03-30T07:56:08.703Z,96223.86
2019-03-30T07:58:35.525Z,96227.80
2019-03-30T08:01:03.900Z,96224.19
2019-03-30T08:03:33.295Z,96218.69
2019-03-30T08:11:14.456Z,96212.56
2019-03-30T08:13:41.534Z,96209.23
2019-03-30T08:16:10.863Z,96208.66
2019-03-30T08:18:39.222Z,96214.09
2019-03-30T08:21:07.588Z,96211.72
2019-03-30T08:23:40.562Z,96213.62
2019-03-30T08:26:04.606Z,96213.47
2019-03-30T08:31:07.232Z,96218.66
2019-03-30T08:33:35.591Z,96214.11
2019-03-30T08:36:03.966Z,96211.50
2019-03-30T08:38:32.308Z,96211.05
2019-03-30T08:41:00.684Z,96207.62
2019-03-30T08:43:29.057Z,96205.20
2019-03-30T08:45:57.412Z,96200.11
2019-03-30T08:48:25.768Z,96204.58
2019-03-30T08:50:56.010Z,96206.60
2019-03-30T08:55:58.612Z,96197.06
2019-03-30T08:58:26.971Z,96191.17
2019-03-30T09:00:55.356Z,96186.97
2019-03-30T09:03:24.671Z,96187.03
2019-03-30T09:05:53.089Z,96177.30
2019-03-30T09:08:21.463Z,96176.59
2019-03-30T09:10:49.817Z,96170.56
2019-03-30T09:13:18.200Z,96168.56
2019-03-30T09:15:47.772Z,96169.00
2019-03-30T09:18:16.168Z,96166.86
2019-03-30T09:20:44.522Z,96163.03
2019-03-30T09:23:12.874Z,96160.94
2019-03-30T09:25:41.271Z,96156.47
2019-03-30T09:28:09.589Z,96153.20
2019-03-30T09:30:37.939Z,96153.76
2019-03-30T09:33:06.304Z,96152.20
2019-03-30T09:35:34.666Z,96147.47
2019-03-30T09:38:03.066Z,96149.23
2019-03-30T09:40:31.445Z,96143.16
2019-03-30T09:42:59.809Z,96141.83
2019-03-30T09:45:28.161Z,96141.48
2019-03-30T09:47:56.625Z,96132.81
2019-03-30T09:50:24.977Z,96136.36
2019-03-30T09:52:53.377Z,96135.16
2019-03-30T09:55:21.803Z,96131.30
2019-03-30T09:57:50.141Z,96135.57
2019-03-30T10:00:18.560Z,96126.36
2019-03-30T10:02:46.939Z,96131.91
2019-03-30T10:07:49.574Z,96130.24
2019-03-30T10:12:55.210Z,96130.86
2019-03-30T10:15:23.597Z,96131.53
2019-03-30T10:17:51.947Z,96124.23
2019-03-30T10:20:20.304Z,96118.43
2019-03-30T10:22:48.755Z,96116.70
2019-03-30T10:27:51.432Z,96105.53
2019-03-30T10:30:19.904Z,96100.98
2019-03-30T10:32:49.232Z,96096.77
2019-03-30T10:35:17.580Z,96100.41
2019-03-30T10:37:45.932Z,96100.49
2019-03-30T10:40:14.301Z,96094.80
2019-03-30T10:42:42.867Z,96089.00
2019-03-30T10:45:11.233Z,96089.97
2019-03-30T10:47:39.601Z,96090.80
2019-03-30T10:50:07.951Z,96090.19
2019-03-30T10:52:36.297Z,96086.11
2019-03-30T10:55:04.680Z,96083.49
2019-03-30T10:57:36.045Z,96076.70
2019-03-30T11:00:05.380Z,96075.81
2019-03-30T11:02:33.774Z,96069.36
2019-03-30T11:05:02.162Z,96074.85
2019-03-30T11:07:30.528Z,96067.33
2019-03-30T11:09:58.884Z,96062.69
2019-03-30T11:12:27.236Z,96063.89
2019-03-30T11:14:55.594Z,96062.59
2019-03-30T11:17:23.937Z,96065.31
2019-03-30T11:19:53.192Z,96057.65
2019-03-30T11:22:21.536Z,96061.07
2019-03-30T11:27:25.209Z,96058.36
2019-03-30T11:29:53.703Z,96046.24
2019-03-30T11:32:22.984Z,96037.86
2019-03-30T11:34:51.332Z,96037.39
2019-03-30T11:37:19.673Z,96034.58
2019-03-30T11:39:48.024Z,96036.84
2019-03-30T11:42:16.369Z,96024.88
2019-03-30T11:44:44.732Z,96026.50
2019-03-30T11:47:13.108Z,96022.73
2019-03-30T11:49:41.487Z,96013.16
2019-03-30T11:52:09.842Z,96009.83
2019-03-30T11:54:38.213Z,96005.64
2019-03-30T11:57:06.571Z,96004.36
2019-03-30T11:59:34.958Z,96006.16
2019-03-30T12:02:03.295Z,96004.19
2019-03-30T12:04:31.682Z,95996.19
2019-03-30T12:07:00.101Z,95993.45
2019-03-30T12:09:29.388Z,95991.09
2019-03-30T12:11:57.761Z,95985.97
2019-03-30T12:14:26.116Z,95984.63
2019-03-30T12:16:54.492Z,95975.13
2019-03-30T12:19:22.867Z,95976.64
2019-03-30T12:21:51.208Z,95977.34
2019-03-30T12:24:19.634Z,95972.45
2019-03-30T12:26:48.026Z,95972.94
2019-03-30T12:29:16.416Z,95972.59
2019-03-30T12:31:44.776Z,95970.39
2019-03-30T12:34:13.327Z,95967.70
2019-03-30T12:36:41.519Z,95958.61
2019-03-30T12:39:09.880Z,95959.23
2019-03-30T12:44:15.564Z,95956.02
2019-03-30T12:46:44.126Z,95949.87
2019-03-30T12:49:12.468Z,95942.80
2019-03-30T12:51:40.833Z,95941.59
2019-03-30T12:54:09.189Z,95937.33
2019-03-30T12:59:11.920Z,95929.48
2019-03-30T13:01:40.277Z,95924.20
2019-03-30T13:06:42.970Z,95920.43
2019-03-30T13:09:11.329Z,95916.17
2019-03-30T13:11:39.692Z,95916.91
2019-03-30T13:14:08.041Z,95916.63
2019-03-30T13:16:37.312Z,95913.88
2019-03-30T13:19:05.667Z,95913.13
2019-03-30T13:21:34.017Z,95910.55
2019-03-30T13:24:02.369Z,95910.40
2019-03-30T13:26:30.740Z,95907.98
2019-03-30T13:28:59.167Z,95900.52
2019-03-30T13:31:27.608Z,95898.30
2019-03-30T13:33:55.922Z,95894.14
2019-03-30T13:36:29.840Z,95895.43
2019-03-30T13:38:58.186Z,95891.50
2019-03-30T13:41:26.544Z,95889.94
2019-03-30T13:43:54.896Z,95893.59
2019-03-30T13:46:23.392Z,95888.46
2019-03-30T13:48:52.300Z,95883.34
2019-03-30T13:51:20.671Z,95878.91
2019-03-30T13:53:49.012Z,95876.83
2019-03-30T13:56:17.780Z,95878.02
2019-03-30T13:58:45.731Z,95878.05
2019-03-30T14:01:17.676Z,95870.70
2019-03-30T14:03:46.035Z,95865.44
2019-03-30T14:06:15.317Z,95862.03
2019-03-30T14:08:43.664Z,95864.88
2019-03-30T14:11:17.693Z,95861.59
2019-03-30T14:13:46.043Z,95860.03
2019-03-30T14:16:14.412Z,95857.53
2019-03-30T14:18:42.767Z,95855.37
2019-03-30T14:21:11.129Z,95854.34
2019-03-30T14:23:39.496Z,95848.95
2019-03-30T14:26:07.877Z,95843.73
2019-03-30T14:28:36.252Z,95842.65
2019-03-30T14:31:04.623Z,95838.91
2019-03-30T14:33:32.980Z,95835.97
2019-03-30T14:36:01.460Z,95838.16
2019-03-30T14:38:29.805Z,95831.72
2019-03-30T14:40:58.160Z,95831.37
2019-03-30T14:43:26.510Z,95831.35
2019-03-30T14:45:54.873Z,95826.61
2019-03-30T14:48:23.236Z,95823.27
2019-03-30T14:50:51.587Z,95816.03
2019-03-30T14:53:20.001Z,95817.63
2019-03-30T14:55:48.429Z,95813.12
2019-03-30T14:58:16.746Z,95809.29
2019-03-30T15:00:45.111Z,95808.09
2019-03-30T15:03:13.502Z,95804.28
2019-03-30T15:05:41.846Z,95798.19
2019-03-30T15:08:14.966Z,95801.53
2019-03-30T15:10:43.380Z,95794.05
2019-03-30T15:13:11.729Z,95792.78
2019-03-30T15:15:40.098Z,95789.55
2019-03-30T15:18:08.527Z,95787.84
2019-03-30T15:20:37.788Z,95796.36
2019-03-30T15:23:06.151Z,95783.85
2019-03-30T15:25:36.491Z,95783.62
2019-03-30T15:28:04.852Z,95778.36
2019-03-30T15:30:33.201Z,95780.83
2019-03-30T15:33:03.527Z,95770.75
2019-03-30T15:35:30.810Z,95773.72
2019-03-30T15:37:59.194Z,95766.03
2019-03-30T15:40:27.542Z,95769.34
2019-03-30T15:42:55.919Z,95764.16
2019-03-30T15:45:24.297Z,95762.03
2019-03-30T15:47:52.623Z,95757.82
2019-03-30T15:50:21.054Z,95758.33
2019-03-30T15:52:49.497Z,95754.45
2019-03-30T15:55:17.844Z,95759.37
2019-03-30T16:00:23.516Z,95749.81
2019-03-30T16:05:26.185Z,95745.97
2019-03-30T16:07:56.519Z,95749.15
2019-03-30T16:10:24.924Z,95743.00
2019-03-30T16:12:53.279Z,95748.61
2019-03-30T16:15:21.635Z,95749.56
2019-03-30T16:17:49.990Z,95754.52
2019-03-30T16:20:18.430Z,95748.97
2019-03-30T16:22:46.753Z,95751.97
2019-03-30T16:25:15.119Z,95746.17
2019-03-30T16:27:43.472Z,95749.13
2019-03-30T16:30:12.794Z,95747.91
2019-03-30T16:32:41.152Z,95743.47
2019-03-30T16:35:09.497Z,95743.52
2019-03-30T16:37:37.848Z,95744.38
2019-03-30T16:40:08.183Z,95747.78
2019-03-30T16:42:36.541Z,95745.48
2019-03-30T16:45:04.921Z,95745.52
2019-03-30T16:47:33.274Z,95738.13
2019-03-30T16:52:41.038Z,95740.94
2019-03-30T16:55:07.460Z,95737.07
2019-03-30T16:57:43.733Z,95740.02
2019-03-30T17:02:42.682Z,95739.16
2019-03-30T17:05:11.229Z,95736.36
2019-03-30T17:07:39.584Z,95736.05
2019-03-30T17:10:07.948Z,95742.01
2019-03-30T17:12:36.297Z,95736.42
2019-03-30T17:17:38.834Z,95733.86
2019-03-30T17:22:42.323Z,95736.66
2019-03-30T17:25:10.672Z,95737.14
2019-03-30T17:30:15.311Z,95731.02
2019-03-30T17:32:43.634Z,95735.13
2019-03-30T17:37:46.281Z,95737.42
2019-03-30T17:40:14.767Z,95739.05
2019-03-30T17:42:48.819Z,95742.55
2019-03-30T17:45:17.208Z,95742.66
2019-03-30T17:47:45.566Z,95744.59
2019-03-30T17:55:33.598Z,95744.34
2019-03-30T17:57:51.913Z,95748.20
2019-03-30T18:00:20.273Z,95748.56
2019-03-30T18:02:48.640Z,95748.09
2019-03-30T18:05:17.028Z,95757.22
2019-03-30T18:07:45.377Z,95754.27
2019-03-30T18:10:13.849Z,95756.98
2019-03-30T18:12:42.209Z,95758.05
2019-03-30T18:17:44.826Z,95760.78
2019-03-30T18:20:13.180Z,95766.62
2019-03-30T18:22:41.525Z,95769.75
2019-03-30T18:25:09.863Z,95777.37
2019-03-30T18:27:38.345Z,95780.45
2019-03-30T18:32:40.940Z,95785.97
2019-03-30T18:35:09.299Z,95787.53
2019-03-30T18:37:37.652Z,95790.42
2019-03-30T18:42:40.267Z,95788.92
2019-03-30T18:45:08.691Z,95793.16
2019-03-30T18:47:37.135Z,95791.84
2019-03-30T18:50:05.462Z,95792.71
2019-03-30T18:52:33.809Z,95794.43
2019-03-30T18:55:02.177Z,95793.64
2019-03-30T18:57:30.508Z,95798.64
2019-03-30T19:02:33.064Z,95792.11
2019-03-30T19:05:01.424Z,95800.55
2019-03-30T19:07:29.769Z,95802.68
2019-03-30T19:09:58.144Z,95799.98
2019-03-30T19:12:26.485Z,95808.63
2019-03-30T19:17:29.222Z,95810.44
2019-03-30T19:19:57.594Z,95807.73
2019-03-30T19:22:25.932Z,95810.25
2019-03-30T19:24:54.277Z,95808.59
2019-03-30T19:27:22.652Z,95808.34
2019-03-30T19:29:51.000Z,95806.17
2019-03-30T19:34:56.657Z,95805.67
2019-03-30T19:37:25.018Z,95808.04
2019-03-30T19:42:27.583Z,95808.48
2019-03-30T19:44:55.965Z,95804.13
2019-03-30T19:47:24.298Z,95804.73
2019-03-30T19:49:52.659Z,95806.53
2019-03-30T19:52:21.023Z,95805.96
2019-03-30T19:54:49.458Z,95808.05
2019-03-30T19:57:18.796Z,95808.63
2019-03-30T19:59:47.131Z,95809.47
2019-03-30T20:02:15.499Z,95808.03
2019-03-30T20:04:43.882Z,95806.67
2019-03-30T20:09:46.554Z,95802.95
2019-03-30T20:12:14.999Z,95807.25
2019-03-30T20:14:43.257Z,95808.92
2019-03-30T20:17:11.658Z,95806.61
2019-03-30T20:19:40.033Z,95809.12
2019-03-30T20:24:44.695Z,95807.97
2019-03-30T20:27:13.066Z,95804.06
2019-03-30T20:29:41.411Z,95805.41
2019-03-30T20:32:09.782Z,95803.20
2019-03-30T20:34:38.123Z,95804.26
2019-03-30T20:37:07.409Z,95803.42
2019-03-30T20:39:35.736Z,95799.40
2019-03-30T20:42:04.113Z,95798.27
2019-03-30T20:44:32.460Z,95800.05
2019-03-30T20:47:00.820Z,95797.78
2019-03-30T20:49:29.166Z,95796.97
2019-03-30T20:51:57.612Z,95794.02
2019-03-30T20:54:25.975Z,95791.39
2019-03-30T20:56:57.939Z,95790.95
2019-03-30T20:59:39.432Z,95789.61
2019-03-30T21:01:54.953Z,95790.09
2019-03-30T21:04:23.295Z,95793.81
2019-03-30T21:06:51.669Z,95794.51
2019-03-30T21:09:20.004Z,95791.54
2019-03-30T21:11:48.344Z,95794.22
2019-03-30T21:14:16.700Z,95792.55
2019-03-30T21:16:45.048Z,95799.69
2019-03-30T21:19:13.392Z,95793.16
2019-03-30T21:21:41.724Z,95795.27
2019-03-30T21:24:10.091Z,95799.84
2019-03-30T21:29:12.802Z,95788.23
2019-03-30T21:31:41.144Z,95789.56
2019-03-30T21:34:09.496Z,95789.69
2019-03-30T21:36:37.940Z,95788.47
2019-03-30T21:39:06.282Z,95787.63
2019-03-30T21:41:34.624Z,95789.62
2019-03-30T21:44:02.972Z,95794.41
2019-03-30T21:46:31.347Z,95794.25
2019-03-30T21:49:00.579Z,95793.50
2019-03-30T21:54:03.102Z,95800.86
2019-03-30T21:56:31.459Z,95799.05
2019-03-30T21:58:59.837Z,95800.19
2019-03-30T22:01:28.182Z,95803.30
2019-03-30T22:03:56.540Z,95802.88
2019-03-30T22:06:24.872Z,95799.64
2019-03-30T22:08:53.241Z,95803.73
2019-03-30T22:11:21.640Z,95798.96
2019-03-30T22:13:50.993Z,95800.45
2019-03-30T22:16:19.317Z,95796.34
2019-03-30T22:18:47.684Z,95795.01
2019-03-30T22:21:16.054Z,95792.38
2019-03-30T22:23:44.410Z,95799.79
2019-03-30T22:26:12.808Z,95796.61
2019-03-30T22:28:41.211Z,95796.51
2019-03-30T22:31:09.577Z,95797.39
2019-03-30T22:33:37.980Z,95799.58
2019-03-30T22:36:06.324Z,95797.47
2019-03-30T22:38:34.694Z,95801.84
2019-03-30T22:41:03.079Z,95804.28
2019-03-30T22:43:31.439Z,95798.06
2019-03-30T22:45:59.840Z,95800.17
2019-03-30T22:51:02.443Z,95805.12
2019-03-30T22:53:30.764Z,95806.44
2019-03-30T22:55:59.109Z,95799.58
2019-03-30T23:01:01.768Z,95801.90
2019-03-30T23:03:30.047Z,95800.38
2019-03-30T23:05:58.436Z,95796.56
2019-03-30T23:08:26.771Z,95798.52
2019-03-30T23:10:55.151Z,95798.30
2019-03-30T23:15:57.748Z,95799.63
2019-03-30T23:18:26.088Z,95796.55
2019-03-30T23:20:54.464Z,95793.00
2019-03-30T23:23:22.840Z,95791.62
2019-03-30T23:25:51.187Z,95792.25
2019-03-30T23:28:19.520Z,95793.91
2019-03-30T23:30:54.084Z,95788.78
2019-03-30T23:33:16.212Z,95787.11
2019-03-30T23:35:44.564Z,95793.50
2019-03-30T23:38:12.966Z,95794.72
2019-03-30T23:40:41.312Z,95795.33
2019-03-30T23:43:09.695Z,95797.33
2019-03-30T23:48:12.276Z,95792.91
2019-03-30T23:50:40.619Z,95795.11
2019-03-30T23:53:08.971Z,95793.95
2019-03-30T23:55:37.317Z,95793.10
2019-03-30T23:58:05.804Z,95790.14
